sensor_id;sensor_type;location;lat;lon;timestamp;temperature;humidity
70830;SHT30;58451;51.550;7.208;2024-03-06T00:00:59;7.18;81.70
70830;SHT30;58451;51.550;7.208;2024-03-06T00:02:31;7.17;81.70
70830;SHT30;58451;51.550;7.208;2024-03-06T00:04:03;7.17;81.67
70830;SHT30;58451;51.550;7.208;2024-03-06T00:05:35;7.18;81.70
70830;SHT30;58451;51.550;7.208;2024-03-06T00:07:07;7.16;81.70
70830;SHT30;58451;51.550;7.208;2024-03-06T00:08:39;7.16;81.70
70830;SHT30;58451;51.550;7.208;2024-03-06T00:10:11;7.16;81.70
70830;SHT30;58451;51.550;7.208;2024-03-06T00:11:52;7.15;81.70
70830;SHT30;58451;51.550;7.208;2024-03-06T00:13:26;7.15;81.70
70830;SHT30;58451;51.550;7.208;2024-03-06T00:14:58;7.14;81.72
70830;SHT30;58451;51.550;7.208;2024-03-06T00:16:30;7.14;81.70
70830;SHT30;58451;51.550;7.208;2024-03-06T00:18:05;7.15;81.70
70830;SHT30;58451;51.550;7.208;2024-03-06T00:19:38;7.13;81.72
70830;SHT30;58451;51.550;7.208;2024-03-06T00:21:11;7.13;81.73
70830;SHT30;58451;51.550;7.208;2024-03-06T00:22:43;7.12;81.78
70830;SHT30;58451;51.550;7.208;2024-03-06T00:24:16;7.12;81.77
70830;SHT30;58451;51.550;7.208;2024-03-06T00:25:48;7.12;81.80
70830;SHT30;58451;51.550;7.208;2024-03-06T00:27:20;7.11;81.80
70830;SHT30;58451;51.550;7.208;2024-03-06T00:28:52;7.10;81.82
70830;SHT30;58451;51.550;7.208;2024-03-06T00:30:24;7.09;81.85
70830;SHT30;58451;51.550;7.208;2024-03-06T00:31:56;7.08;81.83
70830;SHT30;58451;51.550;7.208;2024-03-06T00:33:28;7.08;81.85
70830;SHT30;58451;51.550;7.208;2024-03-06T00:35:00;7.07;81.87
70830;SHT30;58451;51.550;7.208;2024-03-06T00:36:33;7.10;81.88
70830;SHT30;58451;51.550;7.208;2024-03-06T00:38:05;7.09;81.85
70830;SHT30;58451;51.550;7.208;2024-03-06T00:39:38;7.10;81.85
70830;SHT30;58451;51.550;7.208;2024-03-06T00:41:10;7.09;81.87
70830;SHT30;58451;51.550;7.208;2024-03-06T00:42:42;7.09;81.90
70830;SHT30;58451;51.550;7.208;2024-03-06T00:44:15;7.08;81.90
70830;SHT30;58451;51.550;7.208;2024-03-06T00:45:47;7.08;81.95
70830;SHT30;58451;51.550;7.208;2024-03-06T00:47:20;7.08;81.95
70830;SHT30;58451;51.550;7.208;2024-03-06T00:48:53;7.07;81.97
70830;SHT30;58451;51.550;7.208;2024-03-06T00:50:25;7.08;81.98
70830;SHT30;58451;51.550;7.208;2024-03-06T00:51:57;7.08;81.95
70830;SHT30;58451;51.550;7.208;2024-03-06T00:53:29;7.08;82.00
70830;SHT30;58451;51.550;7.208;2024-03-06T00:55:01;7.09;82.00
70830;SHT30;58451;51.550;7.208;2024-03-06T00:56:36;7.09;82.00
70830;SHT30;58451;51.550;7.208;2024-03-06T00:58:10;7.09;82.00
70830;SHT30;58451;51.550;7.208;2024-03-06T00:59:42;7.08;82.02
70830;SHT30;58451;51.550;7.208;2024-03-06T01:01:15;7.08;82.00
70830;SHT30;58451;51.550;7.208;2024-03-06T01:02:49;7.08;82.02
70830;SHT30;58451;51.550;7.208;2024-03-06T01:04:21;7.07;82.00
70830;SHT30;58451;51.550;7.208;2024-03-06T01:05:54;7.07;82.03
70830;SHT30;58451;51.550;7.208;2024-03-06T01:07:26;7.03;82.03
70830;SHT30;58451;51.550;7.208;2024-03-06T01:08:58;7.02;82.03
70830;SHT30;58451;51.550;7.208;2024-03-06T01:10:30;6.97;82.03
70830;SHT30;58451;51.550;7.208;2024-03-06T01:12:02;6.95;82.02
70830;SHT30;58451;51.550;7.208;2024-03-06T01:13:34;6.94;82.03
70830;SHT30;58451;51.550;7.208;2024-03-06T01:15:07;6.91;82.10
70830;SHT30;58451;51.550;7.208;2024-03-06T01:16:39;6.89;82.08
70830;SHT30;58451;51.550;7.208;2024-03-06T01:18:11;6.87;82.08
70830;SHT30;58451;51.550;7.208;2024-03-06T01:19:44;6.84;82.05
70830;SHT30;58451;51.550;7.208;2024-03-06T01:21:16;6.83;82.08
70830;SHT30;58451;51.550;7.208;2024-03-06T01:22:48;6.79;82.08
70830;SHT30;58451;51.550;7.208;2024-03-06T01:24:20;6.76;82.05
70830;SHT30;58451;51.550;7.208;2024-03-06T01:25:52;6.72;82.02
70830;SHT30;58451;51.550;7.208;2024-03-06T01:27:24;6.68;82.00
70830;SHT30;58451;51.550;7.208;2024-03-06T01:28:56;6.65;82.02
70830;SHT30;58451;51.550;7.208;2024-03-06T01:30:29;6.62;82.03
70830;SHT30;58451;51.550;7.208;2024-03-06T01:32:01;6.58;82.02
70830;SHT30;58451;51.550;7.208;2024-03-06T01:33:33;6.55;82.05
70830;SHT30;58451;51.550;7.208;2024-03-06T01:35:05;6.51;82.03
70830;SHT30;58451;51.550;7.208;2024-03-06T01:36:38;6.48;82.00
70830;SHT30;58451;51.550;7.208;2024-03-06T01:38:10;6.42;82.00
70830;SHT30;58451;51.550;7.208;2024-03-06T01:39:43;6.39;81.93
70830;SHT30;58451;51.550;7.208;2024-03-06T01:41:15;6.35;81.97
70830;SHT30;58451;51.550;7.208;2024-03-06T01:42:47;6.32;81.90
70830;SHT30;58451;51.550;7.208;2024-03-06T01:44:20;6.30;81.90
70830;SHT30;58451;51.550;7.208;2024-03-06T01:45:53;6.26;81.93
70830;SHT30;58451;51.550;7.208;2024-03-06T01:47:25;6.22;82.00
70830;SHT30;58451;51.550;7.208;2024-03-06T01:48:58;6.21;82.00
70830;SHT30;58451;51.550;7.208;2024-03-06T01:50:32;6.17;82.00
70830;SHT30;58451;51.550;7.208;2024-03-06T01:52:05;6.16;82.00
70830;SHT30;58451;51.550;7.208;2024-03-06T01:53:40;6.14;82.00
70830;SHT30;58451;51.550;7.208;2024-03-06T01:55:12;6.13;82.00
70830;SHT30;58451;51.550;7.208;2024-03-06T01:56:47;6.11;82.00
70830;SHT30;58451;51.550;7.208;2024-03-06T01:58:21;6.11;82.00
70830;SHT30;58451;51.550;7.208;2024-03-06T01:59:55;6.09;82.00
70830;SHT30;58451;51.550;7.208;2024-03-06T02:01:27;6.07;82.02
70830;SHT30;58451;51.550;7.208;2024-03-06T02:03:00;6.06;82.03
70830;SHT30;58451;51.550;7.208;2024-03-06T02:04:33;6.06;82.10
70830;SHT30;58451;51.550;7.208;2024-03-06T02:06:05;6.03;82.10
70830;SHT30;58451;51.550;7.208;2024-03-06T02:07:42;6.01;82.10
70830;SHT30;58451;51.550;7.208;2024-03-06T02:09:16;6.00;82.15
70830;SHT30;58451;51.550;7.208;2024-03-06T02:10:48;5.99;82.20
70830;SHT30;58451;51.550;7.208;2024-03-06T02:12:20;5.97;82.20
70830;SHT30;58451;51.550;7.208;2024-03-06T02:13:52;5.96;82.20
70830;SHT30;58451;51.550;7.208;2024-03-06T02:15:24;5.95;82.22
70830;SHT30;58451;51.550;7.208;2024-03-06T02:16:57;5.95;82.22
70830;SHT30;58451;51.550;7.208;2024-03-06T02:18:29;5.93;82.22
70830;SHT30;58451;51.550;7.208;2024-03-06T02:20:01;5.91;82.22
70830;SHT30;58451;51.550;7.208;2024-03-06T02:21:37;5.90;82.20
70830;SHT30;58451;51.550;7.208;2024-03-06T02:23:09;5.89;82.25
70830;SHT30;58451;51.550;7.208;2024-03-06T02:24:43;5.88;82.25
70830;SHT30;58451;51.550;7.208;2024-03-06T02:26:21;5.88;82.27
70830;SHT30;58451;51.550;7.208;2024-03-06T02:27:54;5.87;82.27
70830;SHT30;58451;51.550;7.208;2024-03-06T02:29:26;5.84;82.28
70830;SHT30;58451;51.550;7.208;2024-03-06T02:30:58;5.82;82.30
70830;SHT30;58451;51.550;7.208;2024-03-06T02:32:30;5.79;82.30
70830;SHT30;58451;51.550;7.208;2024-03-06T02:34:02;5.77;82.30
70830;SHT30;58451;51.550;7.208;2024-03-06T02:35:38;5.73;82.30
70830;SHT30;58451;51.550;7.208;2024-03-06T02:37:11;5.72;82.30
70830;SHT30;58451;51.550;7.208;2024-03-06T02:38:43;5.69;82.30
70830;SHT30;58451;51.550;7.208;2024-03-06T02:40:16;5.67;82.32
70830;SHT30;58451;51.550;7.208;2024-03-06T02:41:48;5.63;82.30
70830;SHT30;58451;51.550;7.208;2024-03-06T02:43:20;5.61;82.32
70830;SHT30;58451;51.550;7.208;2024-03-06T02:44:52;5.58;82.38
70830;SHT30;58451;51.550;7.208;2024-03-06T02:46:30;5.54;82.40
70830;SHT30;58451;51.550;7.208;2024-03-06T02:48:02;5.52;82.40
70830;SHT30;58451;51.550;7.208;2024-03-06T02:49:34;5.50;82.40
70830;SHT30;58451;51.550;7.208;2024-03-06T02:51:06;5.48;82.40
70830;SHT30;58451;51.550;7.208;2024-03-06T02:52:39;5.47;82.40
70830;SHT30;58451;51.550;7.208;2024-03-06T02:54:11;5.45;82.48
70830;SHT30;58451;51.550;7.208;2024-03-06T02:55:43;5.42;82.48
70830;SHT30;58451;51.550;7.208;2024-03-06T02:57:15;5.40;82.48
70830;SHT30;58451;51.550;7.208;2024-03-06T02:58:49;5.38;82.48
70830;SHT30;58451;51.550;7.208;2024-03-06T03:00:21;5.36;82.50
70830;SHT30;58451;51.550;7.208;2024-03-06T03:01:53;5.34;82.50
70830;SHT30;58451;51.550;7.208;2024-03-06T03:03:25;5.33;82.50
70830;SHT30;58451;51.550;7.208;2024-03-06T03:04:57;5.30;82.52
70830;SHT30;58451;51.550;7.208;2024-03-06T03:06:29;5.28;82.52
70830;SHT30;58451;51.550;7.208;2024-03-06T03:08:01;5.25;82.52
70830;SHT30;58451;51.550;7.208;2024-03-06T03:09:37;5.20;82.55
70830;SHT30;58451;51.550;7.208;2024-03-06T03:11:10;5.18;82.58
70830;SHT30;58451;51.550;7.208;2024-03-06T03:12:42;5.15;82.57
70830;SHT30;58451;51.550;7.208;2024-03-06T03:14:14;5.13;82.57
70830;SHT30;58451;51.550;7.208;2024-03-06T03:15:47;5.09;82.60
70830;SHT30;58451;51.550;7.208;2024-03-06T03:17:19;5.06;82.55
70830;SHT30;58451;51.550;7.208;2024-03-06T03:18:51;5.02;82.60
70830;SHT30;58451;51.550;7.208;2024-03-06T03:20:23;5.00;82.60
70830;SHT30;58451;51.550;7.208;2024-03-06T03:21:55;4.96;82.60
70830;SHT30;58451;51.550;7.208;2024-03-06T03:23:27;4.92;82.60
70830;SHT30;58451;51.550;7.208;2024-03-06T03:25:00;4.88;82.58
70830;SHT30;58451;51.550;7.208;2024-03-06T03:26:33;4.87;82.60
70830;SHT30;58451;51.550;7.208;2024-03-06T03:28:05;4.85;82.60
70830;SHT30;58451;51.550;7.208;2024-03-06T03:29:37;4.83;82.60
70830;SHT30;58451;51.550;7.208;2024-03-06T03:31:09;4.83;82.60
70830;SHT30;58451;51.550;7.208;2024-03-06T03:32:41;4.81;82.60
70830;SHT30;58451;51.550;7.208;2024-03-06T03:34:14;4.78;82.60
70830;SHT30;58451;51.550;7.208;2024-03-06T03:35:46;4.75;82.68
70830;SHT30;58451;51.550;7.208;2024-03-06T03:37:18;4.73;82.68
70830;SHT30;58451;51.550;7.208;2024-03-06T03:38:50;4.70;82.68
70830;SHT30;58451;51.550;7.208;2024-03-06T03:40:22;4.68;82.70
70830;SHT30;58451;51.550;7.208;2024-03-06T03:41:54;4.65;82.70
70830;SHT30;58451;51.550;7.208;2024-03-06T03:43:26;4.63;82.70
70830;SHT30;58451;51.550;7.208;2024-03-06T03:44:58;4.62;82.70
70830;SHT30;58451;51.550;7.208;2024-03-06T03:46:30;4.60;82.72
70830;SHT30;58451;51.550;7.208;2024-03-06T03:48:02;4.57;82.75
70830;SHT30;58451;51.550;7.208;2024-03-06T03:49:36;4.55;82.78
70830;SHT30;58451;51.550;7.208;2024-03-06T03:51:08;4.53;82.80
70830;SHT30;58451;51.550;7.208;2024-03-06T03:52:40;4.53;82.80
70830;SHT30;58451;51.550;7.208;2024-03-06T03:54:15;4.50;82.80
70830;SHT30;58451;51.550;7.208;2024-03-06T03:55:47;4.49;82.80
70830;SHT30;58451;51.550;7.208;2024-03-06T03:57:19;4.47;82.80
70830;SHT30;58451;51.550;7.208;2024-03-06T03:58:51;4.45;82.80
70830;SHT30;58451;51.550;7.208;2024-03-06T04:00:23;4.43;82.80
70830;SHT30;58451;51.550;7.208;2024-03-06T04:01:55;4.42;82.83
70830;SHT30;58451;51.550;7.208;2024-03-06T04:03:28;4.41;82.88
70830;SHT30;58451;51.550;7.208;2024-03-06T04:05:00;4.39;82.87
70830;SHT30;58451;51.550;7.208;2024-03-06T04:06:32;4.39;82.90
70830;SHT30;58451;51.550;7.208;2024-03-06T04:08:05;4.38;82.90
70830;SHT30;58451;51.550;7.208;2024-03-06T04:09:38;4.39;82.93
70830;SHT30;58451;51.550;7.208;2024-03-06T04:11:10;4.38;82.98
70830;SHT30;58451;51.550;7.208;2024-03-06T04:12:43;4.38;83.00
70830;SHT30;58451;51.550;7.208;2024-03-06T04:14:15;4.38;83.00
70830;SHT30;58451;51.550;7.208;2024-03-06T04:15:47;4.38;83.08
70830;SHT30;58451;51.550;7.208;2024-03-06T04:17:19;4.39;83.15
70830;SHT30;58451;51.550;7.208;2024-03-06T04:18:51;4.39;83.10
70830;SHT30;58451;51.550;7.208;2024-03-06T04:20:23;4.39;83.13
70830;SHT30;58451;51.550;7.208;2024-03-06T04:21:56;4.39;83.10
70830;SHT30;58451;51.550;7.208;2024-03-06T04:23:28;4.39;83.13
70830;SHT30;58451;51.550;7.208;2024-03-06T04:25:00;4.39;83.20
70830;SHT30;58451;51.550;7.208;2024-03-06T04:26:35;4.37;83.20
70830;SHT30;58451;51.550;7.208;2024-03-06T04:28:07;4.37;83.20
70830;SHT30;58451;51.550;7.208;2024-03-06T04:29:39;4.36;83.20
70830;SHT30;58451;51.550;7.208;2024-03-06T04:31:11;4.35;83.23
70830;SHT30;58451;51.550;7.208;2024-03-06T04:32:43;4.34;83.28
70830;SHT30;58451;51.550;7.208;2024-03-06T04:34:16;4.34;83.30
70830;SHT30;58451;51.550;7.208;2024-03-06T04:35:47;4.32;83.30
70830;SHT30;58451;51.550;7.208;2024-03-06T04:37:19;4.32;83.30
70830;SHT30;58451;51.550;7.208;2024-03-06T04:38:51;4.30;83.30
70830;SHT30;58451;51.550;7.208;2024-03-06T04:40:23;4.28;83.32
70830;SHT30;58451;51.550;7.208;2024-03-06T04:41:56;4.28;83.30
70830;SHT30;58451;51.550;7.208;2024-03-06T04:43:28;4.26;83.32
70830;SHT30;58451;51.550;7.208;2024-03-06T04:45:00;4.23;83.37
70830;SHT30;58451;51.550;7.208;2024-03-06T04:46:32;4.22;83.40
70830;SHT30;58451;51.550;7.208;2024-03-06T04:48:05;4.21;83.38
70830;SHT30;58451;51.550;7.208;2024-03-06T04:49:38;4.21;83.40
70830;SHT30;58451;51.550;7.208;2024-03-06T04:51:10;4.20;83.40
70830;SHT30;58451;51.550;7.208;2024-03-06T04:52:42;4.18;83.40
70830;SHT30;58451;51.550;7.208;2024-03-06T04:54:16;4.18;83.40
70830;SHT30;58451;51.550;7.208;2024-03-06T04:55:48;4.18;83.48
70830;SHT30;58451;51.550;7.208;2024-03-06T04:57:20;4.18;83.45
70830;SHT30;58451;51.550;7.208;2024-03-06T04:58:52;4.19;83.48
70830;SHT30;58451;51.550;7.208;2024-03-06T05:00:25;4.18;83.48
70830;SHT30;58451;51.550;7.208;2024-03-06T05:01:57;4.20;83.50
70830;SHT30;58451;51.550;7.208;2024-03-06T05:03:29;4.19;83.50
70830;SHT30;58451;51.550;7.208;2024-03-06T05:05:19;4.18;83.50
70830;SHT30;58451;51.550;7.208;2024-03-06T05:07:09;4.18;83.50
70830;SHT30;58451;51.550;7.208;2024-03-06T05:08:58;4.16;83.50
70830;SHT30;58451;51.550;7.208;2024-03-06T05:10:48;4.16;83.58
70830;SHT30;58451;51.550;7.208;2024-03-06T05:12:37;4.16;83.53
70830;SHT30;58451;51.550;7.208;2024-03-06T05:14:27;4.15;83.57
70830;SHT30;58451;51.550;7.208;2024-03-06T05:16:16;4.16;83.60
70830;SHT30;58451;51.550;7.208;2024-03-06T05:18:06;4.16;83.60
70830;SHT30;58451;51.550;7.208;2024-03-06T05:19:58;4.17;83.63
70830;SHT30;58451;51.550;7.208;2024-03-06T05:21:48;4.18;83.67
70830;SHT30;58451;51.550;7.208;2024-03-06T05:23:37;4.16;83.67
70830;SHT30;58451;51.550;7.208;2024-03-06T05:25:27;4.16;83.70
70830;SHT30;58451;51.550;7.208;2024-03-06T05:27:17;4.13;83.70
70830;SHT30;58451;51.550;7.208;2024-03-06T05:29:07;4.12;83.70
70830;SHT30;58451;51.550;7.208;2024-03-06T05:30:57;4.09;83.73
70830;SHT30;58451;51.550;7.208;2024-03-06T05:32:47;4.07;83.70
70830;SHT30;58451;51.550;7.208;2024-03-06T05:34:36;4.04;83.70
70830;SHT30;58451;51.550;7.208;2024-03-06T05:36:25;4.01;83.70
70830;SHT30;58451;51.550;7.208;2024-03-06T05:38:15;3.98;83.70
70830;SHT30;58451;51.550;7.208;2024-03-06T05:40:05;3.94;83.72
70830;SHT30;58451;51.550;7.208;2024-03-06T05:42:01;3.91;83.70
70830;SHT30;58451;51.550;7.208;2024-03-06T05:43:57;3.87;83.73
70830;SHT30;58451;51.550;7.208;2024-03-06T05:45:47;3.83;83.70
70830;SHT30;58451;51.550;7.208;2024-03-06T05:47:38;3.80;83.70
70830;SHT30;58451;51.550;7.208;2024-03-06T05:49:28;3.77;83.72
70830;SHT30;58451;51.550;7.208;2024-03-06T05:51:19;3.74;83.72
70830;SHT30;58451;51.550;7.208;2024-03-06T05:53:08;3.72;83.70
70830;SHT30;58451;51.550;7.208;2024-03-06T05:54:58;3.68;83.70
70830;SHT30;58451;51.550;7.208;2024-03-06T05:56:50;3.65;83.70
70830;SHT30;58451;51.550;7.208;2024-03-06T05:58:42;3.63;83.70
70830;SHT30;58451;51.550;7.208;2024-03-06T06:00:18;3.60;83.72
70830;SHT30;58451;51.550;7.208;2024-03-06T06:01:54;3.59;83.70
70830;SHT30;58451;51.550;7.208;2024-03-06T06:03:26;3.58;83.75
70830;SHT30;58451;51.550;7.208;2024-03-06T06:05:19;3.56;83.78
70830;SHT30;58451;51.550;7.208;2024-03-06T06:06:58;3.55;83.80
70830;SHT30;58451;51.550;7.208;2024-03-06T06:08:39;3.53;83.80
70830;SHT30;58451;51.550;7.208;2024-03-06T06:10:11;3.52;83.80
70830;SHT30;58451;51.550;7.208;2024-03-06T06:11:47;3.51;83.80
70830;SHT30;58451;51.550;7.208;2024-03-06T06:13:22;3.49;83.87
70830;SHT30;58451;51.550;7.208;2024-03-06T06:14:54;3.49;83.83
70830;SHT30;58451;51.550;7.208;2024-03-06T06:16:26;3.48;83.90
70830;SHT30;58451;51.550;7.208;2024-03-06T06:17:58;3.50;83.90
70830;SHT30;58451;51.550;7.208;2024-03-06T06:19:31;3.48;83.90
70830;SHT30;58451;51.550;7.208;2024-03-06T06:21:03;3.47;83.90
70830;SHT30;58451;51.550;7.208;2024-03-06T06:22:39;3.48;83.90
70830;SHT30;58451;51.550;7.208;2024-03-06T06:24:10;3.47;83.90
70830;SHT30;58451;51.550;7.208;2024-03-06T06:25:45;3.46;83.90
70830;SHT30;58451;51.550;7.208;2024-03-06T06:27:17;3.46;83.90
70830;SHT30;58451;51.550;7.208;2024-03-06T06:28:50;3.45;83.92
70830;SHT30;58451;51.550;7.208;2024-03-06T06:30:24;3.45;84.00
70830;SHT30;58451;51.550;7.208;2024-03-06T06:31:56;3.44;83.95
70830;SHT30;58451;51.550;7.208;2024-03-06T06:33:28;3.45;84.07
70830;SHT30;58451;51.550;7.208;2024-03-06T06:35:00;3.44;83.98
70830;SHT30;58451;51.550;7.208;2024-03-06T06:36:34;3.46;84.08
70830;SHT30;58451;51.550;7.208;2024-03-06T06:38:06;3.48;84.18
70830;SHT30;58451;51.550;7.208;2024-03-06T06:39:38;3.49;84.15
70830;SHT30;58451;51.550;7.208;2024-03-06T06:41:10;3.49;84.07
70830;SHT30;58451;51.550;7.208;2024-03-06T06:42:45;3.51;84.03
70830;SHT30;58451;51.550;7.208;2024-03-06T06:44:23;3.51;84.08
70830;SHT30;58451;51.550;7.208;2024-03-06T06:45:55;3.52;84.03
70830;SHT30;58451;51.550;7.208;2024-03-06T06:47:29;3.53;84.05
70830;SHT30;58451;51.550;7.208;2024-03-06T06:49:02;3.55;84.03
70830;SHT30;58451;51.550;7.208;2024-03-06T06:50:34;3.58;84.00
70830;SHT30;58451;51.550;7.208;2024-03-06T06:52:06;3.61;84.00
70830;SHT30;58451;51.550;7.208;2024-03-06T06:53:39;3.64;84.00
70830;SHT30;58451;51.550;7.208;2024-03-06T06:55:14;3.67;84.00
70830;SHT30;58451;51.550;7.208;2024-03-06T06:56:46;3.71;84.02
70830;SHT30;58451;51.550;7.208;2024-03-06T06:58:18;3.77;84.00
70830;SHT30;58451;51.550;7.208;2024-03-06T06:59:51;3.82;84.00
70830;SHT30;58451;51.550;7.208;2024-03-06T07:01:24;3.86;84.00
70830;SHT30;58451;51.550;7.208;2024-03-06T07:02:56;3.90;83.98
70830;SHT30;58451;51.550;7.208;2024-03-06T07:04:30;3.96;83.95
70830;SHT30;58451;51.550;7.208;2024-03-06T07:06:02;4.01;83.95
70830;SHT30;58451;51.550;7.208;2024-03-06T07:07:35;4.06;83.95
70830;SHT30;58451;51.550;7.208;2024-03-06T07:09:07;4.11;83.93
70830;SHT30;58451;51.550;7.208;2024-03-06T07:10:41;4.16;83.93
70830;SHT30;58451;51.550;7.208;2024-03-06T07:12:12;4.22;83.90
70830;SHT30;58451;51.550;7.208;2024-03-06T07:13:45;4.29;83.92
70830;SHT30;58451;51.550;7.208;2024-03-06T07:15:17;4.36;83.90
70830;SHT30;58451;51.550;7.208;2024-03-06T07:16:49;4.41;83.88
70830;SHT30;58451;51.550;7.208;2024-03-06T07:18:21;4.49;83.87
70830;SHT30;58451;51.550;7.208;2024-03-06T07:19:53;4.55;83.85
70830;SHT30;58451;51.550;7.208;2024-03-06T07:21:25;4.64;83.87
70830;SHT30;58451;51.550;7.208;2024-03-06T07:22:57;4.72;83.85
70830;SHT30;58451;51.550;7.208;2024-03-06T07:24:29;4.79;83.85
70830;SHT30;58451;51.550;7.208;2024-03-06T07:26:01;4.86;83.90
70830;SHT30;58451;51.550;7.208;2024-03-06T07:27:33;4.95;83.90
70830;SHT30;58451;51.550;7.208;2024-03-06T07:29:05;5.01;83.92
70830;SHT30;58451;51.550;7.208;2024-03-06T07:30:44;5.11;83.87
70830;SHT30;58451;51.550;7.208;2024-03-06T07:32:17;5.16;83.83
70830;SHT30;58451;51.550;7.208;2024-03-06T07:33:49;5.27;83.85
70830;SHT30;58451;51.550;7.208;2024-03-06T07:35:26;5.34;83.88
70830;SHT30;58451;51.550;7.208;2024-03-06T07:36:58;5.40;83.90
70830;SHT30;58451;51.550;7.208;2024-03-06T07:38:34;5.49;83.95
70830;SHT30;58451;51.550;7.208;2024-03-06T07:40:06;5.57;83.92
70830;SHT30;58451;51.550;7.208;2024-03-06T07:41:41;5.64;83.92
70830;SHT30;58451;51.550;7.208;2024-03-06T07:43:13;5.72;83.87
70830;SHT30;58451;51.550;7.208;2024-03-06T07:44:45;5.78;83.85
70830;SHT30;58451;51.550;7.208;2024-03-06T07:46:18;5.85;83.83
70830;SHT30;58451;51.550;7.208;2024-03-06T07:47:49;5.91;83.87
70830;SHT30;58451;51.550;7.208;2024-03-06T07:49:22;5.99;83.83
70830;SHT30;58451;51.550;7.208;2024-03-06T07:50:54;6.07;83.83
70830;SHT30;58451;51.550;7.208;2024-03-06T07:52:26;6.15;83.83
70830;SHT30;58451;51.550;7.208;2024-03-06T07:53:58;6.23;83.80
70830;SHT30;58451;51.550;7.208;2024-03-06T07:55:30;6.30;83.75
70830;SHT30;58451;51.550;7.208;2024-03-06T07:57:03;6.38;83.75
70830;SHT30;58451;51.550;7.208;2024-03-06T07:58:35;6.45;83.73
70830;SHT30;58451;51.550;7.208;2024-03-06T08:00:07;6.53;83.67
70830;SHT30;58451;51.550;7.208;2024-03-06T08:01:46;6.62;83.63
70830;SHT30;58451;51.550;7.208;2024-03-06T08:03:18;6.69;83.63
70830;SHT30;58451;51.550;7.208;2024-03-06T08:04:50;6.76;83.60
70830;SHT30;58451;51.550;7.208;2024-03-06T08:06:25;6.85;83.53
70830;SHT30;58451;51.550;7.208;2024-03-06T08:07:58;6.95;83.53
70830;SHT30;58451;51.550;7.208;2024-03-06T08:09:30;7.03;83.47
70830;SHT30;58451;51.550;7.208;2024-03-06T08:11:03;7.11;83.42
70830;SHT30;58451;51.550;7.208;2024-03-06T08:12:35;7.22;83.35
70830;SHT30;58451;51.550;7.208;2024-03-06T08:14:07;7.31;83.35
70830;SHT30;58451;51.550;7.208;2024-03-06T08:15:42;7.41;83.33
70830;SHT30;58451;51.550;7.208;2024-03-06T08:17:16;7.52;83.25
70830;SHT30;58451;51.550;7.208;2024-03-06T08:18:48;7.60;83.20
70830;SHT30;58451;51.550;7.208;2024-03-06T08:20:20;7.69;83.13
70830;SHT30;58451;51.550;7.208;2024-03-06T08:21:52;7.78;83.07
70830;SHT30;58451;51.550;7.208;2024-03-06T08:23:25;7.85;82.98
70830;SHT30;58451;51.550;7.208;2024-03-06T08:24:56;7.91;82.87
70830;SHT30;58451;51.550;7.208;2024-03-06T08:26:28;7.97;82.83
70830;SHT30;58451;51.550;7.208;2024-03-06T08:28:01;8.06;82.82
70830;SHT30;58451;51.550;7.208;2024-03-06T08:29:37;8.17;82.73
70830;SHT30;58451;51.550;7.208;2024-03-06T08:31:09;8.26;82.68
70830;SHT30;58451;51.550;7.208;2024-03-06T08:32:41;8.36;82.62
70830;SHT30;58451;51.550;7.208;2024-03-06T08:34:18;8.43;82.52
70830;SHT30;58451;51.550;7.208;2024-03-06T08:35:50;8.51;82.42
70830;SHT30;58451;51.550;7.208;2024-03-06T08:37:22;8.61;82.38
70830;SHT30;58451;51.550;7.208;2024-03-06T08:38:54;8.70;82.27
70830;SHT30;58451;51.550;7.208;2024-03-06T08:40:26;8.76;82.10
70830;SHT30;58451;51.550;7.208;2024-03-06T08:42:02;8.84;82.00
70830;SHT30;58451;51.550;7.208;2024-03-06T08:43:34;8.91;81.83
70830;SHT30;58451;51.550;7.208;2024-03-06T08:45:06;8.96;81.73
70830;SHT30;58451;51.550;7.208;2024-03-06T08:46:39;9.02;81.53
70830;SHT30;58451;51.550;7.208;2024-03-06T08:48:11;9.06;81.40
70830;SHT30;58451;51.550;7.208;2024-03-06T08:49:43;9.10;81.25
70830;SHT30;58451;51.550;7.208;2024-03-06T08:51:15;9.16;81.20
70830;SHT30;58451;51.550;7.208;2024-03-06T08:52:47;9.23;81.10
70830;SHT30;58451;51.550;7.208;2024-03-06T08:54:20;9.29;81.03
70830;SHT30;58451;51.550;7.208;2024-03-06T08:55:52;9.38;80.97
70830;SHT30;58451;51.550;7.208;2024-03-06T08:57:24;9.48;80.85
70830;SHT30;58451;51.550;7.208;2024-03-06T08:59:01;9.57;80.72
70830;SHT30;58451;51.550;7.208;2024-03-06T09:00:34;9.68;80.65
70830;SHT30;58451;51.550;7.208;2024-03-06T09:02:12;9.78;80.52
70830;SHT30;58451;51.550;7.208;2024-03-06T09:03:50;9.87;80.30
70830;SHT30;58451;51.550;7.208;2024-03-06T09:05:22;9.95;80.20
70830;SHT30;58451;51.550;7.208;2024-03-06T09:06:56;10.03;79.97
70830;SHT30;58451;51.550;7.208;2024-03-06T09:08:28;10.07;78.62
70830;SHT30;58451;51.550;7.208;2024-03-06T09:10:01;10.14;78.33
70830;SHT30;58451;51.550;7.208;2024-03-06T09:11:33;10.21;78.33
70830;SHT30;58451;51.550;7.208;2024-03-06T09:13:05;10.28;78.10
70830;SHT30;58451;51.550;7.208;2024-03-06T09:14:38;10.39;78.02
70830;SHT30;58451;51.550;7.208;2024-03-06T09:16:12;10.48;77.58
70830;SHT30;58451;51.550;7.208;2024-03-06T09:17:45;10.53;77.62
70830;SHT30;58451;51.550;7.208;2024-03-06T09:19:19;10.56;77.77
70830;SHT30;58451;51.550;7.208;2024-03-06T09:20:50;10.64;77.80
70830;SHT30;58451;51.550;7.208;2024-03-06T09:22:23;10.71;77.15
70830;SHT30;58451;51.550;7.208;2024-03-06T09:23:55;10.78;77.23
70830;SHT30;58451;51.550;7.208;2024-03-06T09:25:27;10.74;76.53
70830;SHT30;58451;51.550;7.208;2024-03-06T09:27:01;10.75;77.00
70830;SHT30;58451;51.550;7.208;2024-03-06T09:28:33;10.78;77.23
70830;SHT30;58451;51.550;7.208;2024-03-06T09:30:05;10.83;76.90
70830;SHT30;58451;51.550;7.208;2024-03-06T09:31:38;10.88;77.08
70830;SHT30;58451;51.550;7.208;2024-03-06T09:33:10;10.90;77.20
70830;SHT30;58451;51.550;7.208;2024-03-06T09:34:42;10.90;77.03
70830;SHT30;58451;51.550;7.208;2024-03-06T09:36:16;10.89;77.00
70830;SHT30;58451;51.550;7.208;2024-03-06T09:37:48;10.87;76.97
70830;SHT30;58451;51.550;7.208;2024-03-06T09:39:21;10.90;76.87
70830;SHT30;58451;51.550;7.208;2024-03-06T09:40:56;10.98;76.60
70830;SHT30;58451;51.550;7.208;2024-03-06T09:42:28;11.05;76.47
70830;SHT30;58451;51.550;7.208;2024-03-06T09:44:01;11.06;76.03
70830;SHT30;58451;51.550;7.208;2024-03-06T09:45:34;11.09;76.18
70830;SHT30;58451;51.550;7.208;2024-03-06T09:47:07;11.16;76.20
70830;SHT30;58451;51.550;7.208;2024-03-06T09:48:52;11.24;75.92
70830;SHT30;58451;51.550;7.208;2024-03-06T09:50:26;11.30;75.87
70830;SHT30;58451;51.550;7.208;2024-03-06T09:52:07;11.32;75.92
70830;SHT30;58451;51.550;7.208;2024-03-06T09:53:41;11.34;75.40
70830;SHT30;58451;51.550;7.208;2024-03-06T09:55:16;11.37;75.28
70830;SHT30;58451;51.550;7.208;2024-03-06T09:56:48;11.37;75.17
70830;SHT30;58451;51.550;7.208;2024-03-06T09:58:21;11.42;74.78
70830;SHT30;58451;51.550;7.208;2024-03-06T09:59:53;11.47;74.57
70830;SHT30;58451;51.550;7.208;2024-03-06T10:01:25;11.55;74.90
70830;SHT30;58451;51.550;7.208;2024-03-06T10:02:59;11.65;74.68
70830;SHT30;58451;51.550;7.208;2024-03-06T10:04:32;11.73;74.63